Date,TemperatureHighF,TemperatureAvgF,TemperatureLowF,DewpointHighF,DewpointAvgF,DewpointLowF,HumidityHigh,HumidityAvg,HumidityLow,PressureMaxIn,PressureMinIn,WindSpeedMaxMPH,WindSpeedAvgMPH,GustSpeedMaxMPH,PrecipitationSumIn
2013-1-1,78.0,73.0,67.0,64.0,61.3,58.0,84,67,57,0.00,40.00,12,6,0,0.00
2013-1-2,82.0,71.6,62.0,68.0,64.7,60.0,95,80,55,0.00,40.00,7,2,0,0.00
2013-1-3,83.0,73.5,67.0,69.0,66.5,64.0,93,79,56,0.00,40.00,8,3,0,0.00
2013-1-4,81.0,72.8,66.0,72.0,68.4,64.0,95,86,66,0.00,40.00,7,3,0,0.00
2013-1-5,78.0,71.0,67.0,71.0,67.8,66.0,94,89,77,0.00,40.00,8,4,0,0.00
2013-1-6,82.0,74.0,67.0,73.0,69.5,65.0,96,86,69,0.00,40.00,10,4,0,0.00
2013-1-7,78.0,71.3,67.0,70.0,67.9,66.0,96,89,73,0.00,40.00,7,3,0,0.00
2013-1-8,81.0,76.1,70.0,73.0,71.0,68.0,94,85,70,0.00,40.00,11,6,0,0.00
2013-1-9,81.0,77.7,76.0,73.0,71.5,70.0,86,81,75,0.00,40.00,13,9,0,0.00
2013-1-10,80.0,76.2,74.0,70.0,67.3,65.0,81,74,62,0.00,40.00,14,9,0,0.00
2013-1-11,80.0,75.9,73.0,71.0,68.1,66.0,84,77,66,0.00,40.00,12,8,0,0.00
2013-1-12,81.0,74.9,69.0,70.0,67.3,64.0,88,77,65,0.00,40.00,11,6,0,0.00
2013-1-13,80.0,74.8,70.0,69.0,65.9,62.0,87,74,62,0.00,40.00,13,7,0,0.00
2013-1-14,80.0,74.2,68.0,66.0,64.1,61.0,85,71,58,0.00,40.00,11,5,0,0.00
2013-1-15,80.0,72.7,66.0,70.0,66.0,63.0,94,80,66,0.00,40.00,10,5,0,0.00
2013-1-16,80.0,72.1,64.0,70.0,66.5,61.0,95,83,68,0.00,40.00,10,4,0,0.00
2013-1-17,80.0,70.9,61.0,72.0,66.3,55.0,95,85,70,0.00,40.00,11,5,0,0.03
2013-1-18,71.0,62.8,54.0,61.0,53.5,47.0,80,71,62,0.00,40.00,10,6,0,0.00
2013-1-19,72.0,67.9,63.0,67.0,63.8,58.0,94,86,65,0.00,40.00,7,4,0,0.17
2013-1-20,81.0,70.8,64.0,70.0,66.0,63.0,96,85,57,0.00,40.00,8,3,0,0.00
2013-1-21,81.0,72.5,66.0,71.0,67.3,64.0,95,84,68,0.00,40.00,9,4,0,0.00
2013-1-22,76.0,68.2,63.0,65.0,60.0,56.0,92,76,57,0.00,40.00,9,5,0,0.00
2013-1-23,73.0,67.1,61.0,59.0,55.7,54.0,83,67,54,0.00,40.00,12,5,0,0.00
2013-1-24,75.0,65.5,58.0,57.0,54.4,51.0,86,68,50,0.00,40.00,8,4,0,0.00
2013-1-25,76.0,66.0,56.0,60.0,55.6,50.0,86,70,48,0.00,40.00,10,4,0,0.00
2013-1-26,78.0,66.9,58.0,62.0,58.8,53.0,94,76,51,0.00,40.00,9,4,0,0.00
2013-1-27,78.0,69.7,61.0,65.0,62.4,59.0,95,78,60,0.00,40.00,11,6,0,0.00
2013-1-28,79.0,74.6,71.0,67.0,64.8,63.0,80,72,60,0.00,40.00,13,8,0,0.00
2013-1-29,79.0,75.0,72.0,69.0,67.3,64.0,85,77,68,0.00,40.00,12,7,0,0.00
2013-1-30,80.0,75.0,72.0,68.0,66.1,64.0,88,74,63,0.00,40.00,13,8,0,0.00
2013-1-31,72.0,65.7,61.0,68.0,57.4,42.0,92,75,51,0.00,40.00,9,5,0,0.00
2013-2-1,73.0,63.0,53.0,55.0,49.0,40.0,74,60,49,0.00,40.00,10,6,0,0.00
2013-2-2,73.0,63.6,56.0,55.0,50.2,38.0,87,62,47,0.00,40.00,10,5,0,0.00
2013-2-3,74.0,63.6,55.0,56.0,50.2,38.0,93,65,28,0.00,40.00,8,4,0,0.00
2013-2-4,75.0,62.7,51.0,55.0,48.7,40.0,83,62,35,0.00,40.00,8,3,0,0.00
2013-2-5,78.0,66.8,54.0,63.0,58.6,52.0,94,76,54,0.00,40.00,7,3,0,0.00
2013-2-6,80.0,70.6,61.0,66.0,63.2,59.0,95,78,56,0.00,40.00,9,4,0,0.00
2013-2-7,81.0,74.2,67.0,66.0,64.1,61.0,87,71,56,0.00,40.00,9,5,0,0.00
2013-2-8,85.0,74.4,69.0,72.0,68.6,60.0,93,82,60,0.00,40.00,11,5,0,0.03
2013-2-9,79.0,70.8,64.0,69.0,63.4,58.0,95,77,65,0.00,40.00,14,7,0,0.00
2013-2-10,76.0,72.3,70.0,67.0,62.2,59.0,80,70,57,0.00,40.00,14,9,0,0.00
2013-2-11,79.0,73.5,70.0,66.0,64.4,63.0,82,73,64,0.00,40.00,10,7,0,0.00
2013-2-12,85.0,74.1,64.0,70.0,66.3,62.0,94,78,49,0.00,40.00,12,5,0,0.00
2013-2-13,85.0,76.4,69.0,73.0,70.0,66.0,95,81,65,0.00,40.00,12,6,0,0.00
2013-2-14,85.0,73.9,63.0,73.0,68.5,61.0,93,84,59,0.00,40.00,15,6,0,0.19
2013-2-15,72.0,66.4,63.0,68.0,64.6,61.0,96,93,84,0.00,40.00,8,3,0,0.91
2013-2-16,74.0,65.7,56.0,64.0,57.2,47.0,95,76,40,0.00,40.00,14,7,0,0.00
2013-2-17,57.0,52.0,46.0,47.0,30.8,21.0,75,46,27,0.00,40.00,12,7,0,0.00
2013-2-18,69.0,59.6,48.0,57.0,46.2,36.0,69,61,51,0.00,40.00,14,7,0,0.00
2013-2-19,77.0,70.7,62.0,66.0,61.7,55.0,92,73,64,0.00,40.00,11,6,0,0.00
2013-2-20,78.0,70.7,65.0,67.0,64.9,60.0,94,82,56,0.00,40.00,11,4,0,0.00
2013-2-21,80.0,73.7,67.0,68.0,66.2,64.0,91,78,61,0.00,40.00,10,5,0,0.00
2013-2-22,81.0,76.2,73.0,71.0,69.9,67.0,88,81,67,0.00,40.00,11,8,0,0.00
2013-2-23,84.0,77.4,73.0,72.0,70.6,68.0,91,79,63,0.00,40.00,11,7,0,0.00
2013-2-24,88.0,77.8,72.0,74.0,70.7,65.0,95,80,48,0.00,40.00,9,4,0,0.00
2013-2-25,85.0,77.0,69.0,73.0,69.9,66.0,93,79,59,0.00,40.00,13,5,0,0.00
2013-2-26,85.0,79.3,75.0,73.0,71.4,69.0,89,77,59,0.00,40.00,15,9,0,0.03
2013-2-27,77.0,71.1,66.0,73.0,67.0,64.0,93,87,69,0.00,40.00,7,4,0,0.36
2013-2-28,70.0,65.3,61.0,64.0,55.7,49.0,94,72,51,0.00,40.00,7,4,0,0.00
2013-3-1,65.0,62.6,59.0,57.0,52.4,48.0,83,69,61,0.00,40.00,7,4,0,0.00
2013-3-2,66.0,58.1,51.0,48.0,43.5,40.0,73,58,44,0.00,40.00,15,7,0,0.00
2013-3-3,62.0,55.3,50.0,46.0,43.7,42.0,79,65,48,0.00,40.00,14,7,0,0.00
2013-3-4,68.0,54.5,44.0,46.0,39.5,34.0,76,59,29,0.00,40.00,8,4,0,0.00
2013-3-5,75.0,63.1,49.0,57.0,52.7,45.0,92,70,52,0.00,40.00,10,4,0,0.00
2013-3-6,78.0,65.9,54.0,65.0,52.7,32.0,92,66,24,0.00,40.00,18,8,0,0.00
2013-3-7,71.0,58.4,47.0,54.0,43.3,38.0,82,59,36,0.00,40.00,9,4,0,0.00
2013-3-8,76.0,64.1,54.0,54.0,50.5,43.0,90,65,31,0.00,40.00,7,4,0,0.00
2013-3-9,74.0,65.1,55.0,58.0,53.9,50.0,87,68,54,0.00,40.00,11,6,0,0.00
2013-3-10,74.0,69.6,64.0,61.0,56.3,53.0,70,62,56,0.00,40.00,13,8,0,0.00
2013-3-11,76.0,72.1,69.0,63.0,60.9,59.0,76,68,60,0.00,40.00,12,8,0,0.00
2013-3-12,82.0,74.3,68.0,69.0,65.5,60.0,84,74,62,0.00,40.00,12,7,0,0.00
2013-3-13,76.0,66.8,57.0,66.0,54.7,44.0,89,67,37,0.00,40.00,10,6,0,0.00
2013-3-14,72.0,62.1,55.0,54.0,45.8,37.0,82,58,29,0.00,40.00,11,6,0,0.00
2013-3-15,72.0,62.4,54.0,53.0,49.3,44.0,79,63,44,0.00,40.00,10,5,0,0.00
2013-3-16,74.0,64.7,53.0,58.0,53.7,51.0,94,69,50,0.00,40.00,10,4,0,0.00
2013-3-17,76.0,67.0,56.0,61.0,57.7,54.0,93,73,55,0.00,40.00,10,4,0,0.00
2013-3-18,80.0,72.0,64.0,70.0,65.4,60.0,93,80,66,0.00,40.00,11,5,0,0.00
2013-3-19,80.0,73.1,68.0,71.0,67.6,66.0,95,84,63,0.00,40.00,11,4,0,0.03
2013-3-20,86.0,74.1,65.0,70.0,64.2,58.0,95,73,45,0.00,40.00,15,4,0,0.00
2013-3-21,76.0,67.9,61.0,62.0,54.4,45.0,91,65,38,0.00,40.00,9,5,0,0.00
2013-3-22,77.0,68.7,57.0,69.0,60.8,52.0,89,76,60,0.00,40.00,11,5,0,0.00
2013-3-23,87.0,78.7,71.0,74.0,71.3,68.0,95,79,55,0.00,40.00,12,6,0,0.00
2013-3-24,88.0,80.3,75.0,74.0,72.2,71.0,94,77,56,0.00,40.00,21,10,0,0.00
2013-3-25,79.0,74.7,66.0,73.0,62.0,39.0,93,67,32,0.00,40.00,10,6,0,0.00
2013-3-26,67.0,61.4,53.0,46.0,39.4,34.0,66,45,32,0.00,40.00,11,8,0,0.00
2013-3-27,69.0,57.2,46.0,47.0,40.2,35.0,74,54,38,0.00,40.00,10,5,0,0.00
2013-3-28,73.0,61.8,51.0,50.0,45.2,39.0,79,56,30,0.00,40.00,11,4,0,0.00
2013-3-29,73.0,65.3,56.0,54.0,49.8,42.0,70,57,45,0.00,40.00,12,6,0,0.00
2013-3-30,74.0,66.4,55.0,58.0,53.3,49.0,91,64,43,0.00,40.00,11,5,0,0.00
2013-3-31,79.0,71.4,62.0,66.0,60.2,-99.9,86,70,57,0.00,40.00,12,6,0,0.00
2013-4-1,88.0,75.7,69.0,71.0,66.6,62.0,90,75,41,0.00,40.00,14,6,0,0.00
2013-4-2,84.0,74.3,66.0,69.0,65.6,62.0,96,76,47,0.00,40.00,10,5,0,0.00
2013-4-3,83.0,76.6,70.0,71.0,67.8,66.0,91,74,58,0.00,40.00,11,6,0,0.00
2013-4-4,86.0,76.8,68.0,72.0,69.6,65.0,94,79,58,0.00,40.00,13,7,0,0.30
2013-4-5,74.0,69.1,67.0,71.0,66.7,64.0,95,92,83,0.00,40.00,9,5,0,1.13
2013-4-6,79.0,69.5,61.0,66.0,61.4,58.0,94,76,58,0.00,40.00,13,6,0,0.00
2013-4-7,76.0,73.0,70.0,68.0,64.7,63.0,90,75,64,0.00,40.00,13,8,0,0.14
2013-4-8,81.0,73.2,63.0,69.0,62.3,59.0,94,70,47,0.00,40.00,10,5,0,0.00
2013-4-9,81.0,76.1,71.0,70.0,66.9,64.0,83,73,63,0.00,40.00,12,8,0,0.00
2013-4-10,84.0,78.2,73.0,73.0,70.8,67.0,85,78,65,0.00,40.00,13,8,0,0.00
2013-4-11,83.0,79.6,77.0,74.0,72.1,71.0,84,77,69,0.00,40.00,15,10,0,0.00
2013-4-12,89.0,82.2,78.0,76.0,74.4,73.0,88,78,63,0.00,40.00,12,7,0,0.00
2013-4-13,84.0,79.5,74.0,76.0,73.8,71.0,91,82,67,0.00,40.00,12,5,0,0.09
2013-4-14,87.0,80.8,76.0,76.0,74.0,72.0,94,80,60,0.00,40.00,11,6,0,0.00
2013-4-15,89.0,81.0,75.0,77.0,74.7,73.0,92,82,59,0.00,40.00,9,4,0,0.03
2013-4-17,83.0,80.2,77.0,72.0,70.7,70.0,78,72,67,0.00,40.00,0,0,0,0.08
2013-4-18,86.0,81.0,76.0,73.0,71.2,69.0,82,73,57,0.00,40.00,0,0,0,0.00
2013-4-19,87.0,82.4,79.0,74.0,72.2,69.0,82,71,56,0.00,40.00,0,0,0,0.00
2013-4-20,90.0,79.8,72.0,77.0,73.9,69.0,94,83,51,0.00,40.00,0,0,0,0.87
2013-4-21,84.0,77.8,73.0,75.0,73.0,71.0,95,86,68,0.00,40.00,0,0,0,0.08
2013-4-22,84.0,75.3,70.0,74.0,70.9,68.0,96,87,66,0.00,40.00,11,2,0,1.94
2013-4-23,83.0,75.5,68.0,72.0,67.3,62.0,96,77,58,0.00,40.00,13,7,0,0.00
2013-4-24,82.0,76.9,71.0,68.0,64.8,61.0,79,66,57,0.00,40.00,11,7,0,0.00
2013-4-25,82.0,76.4,69.0,66.0,62.8,61.0,80,63,49,0.00,40.00,11,6,0,0.00
2013-4-26,81.0,75.8,68.0,66.0,64.3,61.0,85,68,58,0.00,40.00,14,7,0,0.00
2013-4-27,81.0,77.0,73.0,69.0,65.0,63.0,78,66,57,0.00,40.00,13,9,0,0.00
2013-4-28,82.0,77.5,74.0,67.0,65.3,61.0,78,66,57,0.00,40.00,13,9,0,0.00
2013-4-29,84.0,77.8,75.0,74.0,69.2,64.0,90,75,64,0.00,40.00,11,7,0,0.03
2013-4-30,84.0,76.3,72.0,74.0,71.0,68.0,94,84,66,0.00,40.00,14,4,0,0.11
2013-5-1,85.0,76.0,71.0,76.0,71.7,69.0,96,87,67,0.00,40.00,12,4,0,0.09
2013-5-2,82.0,74.3,69.0,75.0,71.0,68.0,96,89,67,0.00,40.00,14,5,0,0.69
2013-5-3,87.0,76.5,69.0,72.0,69.7,67.0,96,81,51,0.00,40.00,13,5,0,0.00
2013-5-4,88.0,78.2,70.0,71.0,68.7,66.0,94,74,49,0.00,40.00,13,8,0,0.00
2013-5-5,82.0,75.0,69.0,68.0,63.9,56.0,91,70,47,0.00,40.00,11,6,0,0.00
2013-5-6,85.0,74.9,63.0,65.0,60.0,56.0,84,61,39,0.00,40.00,9,4,0,0.00
2013-5-7,86.0,75.5,66.0,67.0,61.4,56.0,85,63,36,0.00,40.00,11,6,0,0.00
2013-5-8,87.0,76.1,65.0,67.0,61.6,58.0,90,63,36,0.00,40.00,9,4,0,0.00
2013-5-9,87.0,77.9,68.0,76.0,67.8,60.0,88,72,53,0.00,40.00,8,4,0,0.03
2013-5-10,89.0,79.8,73.0,75.0,70.2,-99.9,91,76,59,0.00,40.00,5,0,0,0.00
2013-5-11,88.0,80.1,75.0,77.0,73.9,71.0,95,82,62,0.00,40.00,0,0,0,0.08
2013-5-12,90.0,79.8,74.0,75.0,71.7,-99.9,95,79,53,0.00,40.00,0,0,0,0.00
2013-5-13,90.0,80.4,73.0,75.0,71.2,66.0,94,75,49,0.00,40.00,0,0,0,0.00
2013-5-14,81.0,77.2,72.0,70.0,63.5,51.0,80,63,44,0.00,40.00,12,4,0,0.08
2013-5-15,82.0,75.3,67.0,65.0,61.7,58.0,85,63,48,0.00,40.00,14,7,0,0.00
2013-5-16,83.0,71.0,70.0,66.0,41.2,-99.9,76,61,52,0.00,40.00,11,7,0,0.00
2013-5-17,89.0,78.9,72.0,73.0,62.4,-99.9,87,70,48,0.00,40.00,11,5,0,0.00
2013-5-18,86.0,80.3,74.0,77.0,72.8,70.0,93,78,66,0.00,40.00,11,5,0,0.00
2013-5-19,86.0,80.5,74.0,73.0,70.8,67.0,88,73,56,0.00,40.00,12,6,0,0.00
2013-5-20,83.0,77.6,70.0,76.0,73.0,68.0,95,85,75,0.00,40.00,15,6,0,4.63
2013-5-21,84.0,77.1,71.0,76.0,72.8,69.0,96,86,70,0.00,40.00,12,5,0,0.11
2013-5-22,88.0,79.4,73.0,77.0,73.7,69.0,94,83,61,0.00,40.00,10,4,0,0.90
2013-5-23,93.0,83.1,75.0,77.0,73.6,67.0,93,74,44,0.00,40.00,9,5,0,0.00
2013-5-24,91.0,82.8,75.0,77.0,74.3,65.0,93,76,53,0.00,40.00,10,5,0,0.00
2013-5-25,86.0,81.3,76.0,75.0,70.6,66.0,91,70,56,0.00,40.00,14,8,0,0.00
2013-5-26,85.0,79.5,73.0,70.0,67.1,63.0,80,66,55,0.00,40.00,14,8,0,0.00
2013-5-27,85.0,80.7,77.0,74.0,71.7,65.0,81,74,66,0.00,40.00,16,12,0,0.00
2013-5-28,84.0,79.5,75.0,75.0,73.8,72.0,93,82,72,0.00,40.00,14,10,0,0.00
2013-5-29,82.0,77.5,73.0,76.0,73.0,70.0,94,86,74,0.00,40.00,18,10,0,1.37
2013-5-30,84.0,79.8,76.0,77.0,73.4,70.0,91,80,73,0.00,40.00,17,12,0,0.22
2013-5-31,85.0,80.8,76.0,77.0,75.2,72.0,91,83,72,0.00,40.00,13,8,0,0.06
2013-6-1,85.0,79.1,75.0,78.0,75.4,73.0,95,89,75,0.00,40.00,9,4,0,0.17
2013-6-2,90.0,80.3,74.0,78.0,73.6,-99.9,96,84,60,0.00,40.00,13,3,0,0.00
2013-6-3,89.0,81.6,75.0,77.0,74.4,71.0,94,80,56,0.00,40.00,7,4,0,0.00
2013-6-4,85.0,79.9,75.0,79.0,75.5,73.0,96,87,71,0.00,40.00,8,4,0,0.17
2013-6-5,85.0,82.1,80.0,78.0,77.3,75.0,90,85,80,0.00,40.00,11,7,0,0.00
2013-6-6,89.0,81.8,76.0,80.0,76.9,72.0,93,85,70,0.00,40.00,19,9,0,0.36
2013-6-7,90.0,79.1,74.0,79.0,75.8,73.0,96,90,69,0.00,40.00,12,6,0,3.56
2013-6-8,89.0,82.2,75.0,79.0,76.6,74.0,96,84,65,0.00,40.00,12,6,0,0.00
2013-6-9,87.0,82.7,79.0,78.0,76.1,73.0,89,80,70,0.00,40.00,12,8,0,0.03
2013-6-10,88.0,83.9,80.0,78.0,77.3,75.0,89,81,71,0.00,40.00,11,8,0,0.00
2013-6-11,89.0,83.7,80.0,79.0,77.4,74.0,90,81,67,0.00,40.00,11,5,0,0.00
2013-6-12,89.0,80.0,73.0,80.0,76.6,71.0,96,89,70,0.00,40.00,12,2,0,0.49
2013-6-13,89.0,79.7,75.0,79.0,75.7,74.0,97,88,64,0.00,40.00,11,2,0,0.00
2013-6-14,93.0,82.0,75.0,78.0,74.8,72.0,95,80,54,0.00,40.00,11,4,0,0.00
2013-6-15,93.0,83.5,76.0,78.0,75.2,72.0,95,77,51,0.00,40.00,9,4,0,0.00
2013-6-16,90.0,84.0,77.0,80.0,76.5,74.0,94,78,63,0.00,40.00,12,5,0,0.00
2013-6-17,91.0,85.4,79.0,79.0,76.0,74.0,88,74,59,0.00,40.00,10,6,0,0.00
2013-6-18,91.0,85.5,80.0,78.0,76.7,75.0,90,75,62,0.00,40.00,10,6,0,0.00
2013-6-19,91.0,85.1,80.0,78.0,76.5,73.0,91,76,61,0.00,40.00,9,5,0,0.00
2013-6-20,91.0,82.8,74.0,78.0,75.0,70.0,93,78,58,0.00,40.00,10,5,0,0.08
2013-6-22,89.0,85.9,79.0,77.0,75.5,74.0,86,71,61,0.00,40.00,11,8,0,0.00
2013-6-23,89.0,83.6,76.0,77.0,75.1,71.0,87,75,62,0.00,40.00,11,7,0,0.00
2013-6-24,88.0,84.8,79.0,78.0,75.1,72.0,82,73,65,0.00,40.00,12,9,0,0.00
2013-6-25,89.0,84.2,80.0,78.0,75.8,73.0,83,76,66,0.00,40.00,12,8,0,0.00
2013-6-26,90.0,85.1,79.0,77.0,75.6,72.0,91,74,55,0.00,40.00,10,6,0,0.06
2013-6-27,88.0,83.1,78.0,78.0,76.2,73.0,92,79,70,0.00,40.00,7,4,0,0.03
2013-6-28,91.0,84.0,77.0,78.0,75.4,73.0,94,76,59,0.00,40.00,10,4,0,0.00
2013-6-29,93.0,82.6,78.0,78.0,75.6,73.0,90,80,54,0.00,40.00,9,3,0,0.00
2013-6-30,91.0,82.6,78.0,79.0,75.7,73.0,90,80,60,0.00,40.00,13,6,0,0.09
2013-7-1,90.0,83.8,78.0,79.0,76.3,74.0,88,79,63,0.00,40.00,13,6,0,0.00
2013-7-2,88.0,82.0,77.0,80.0,76.9,74.0,91,84,73,0.00,40.00,13,5,0,0.03
2013-7-3,89.0,83.0,76.0,78.0,76.3,73.0,95,80,69,0.00,40.00,15,8,0,0.24
2013-7-4,89.0,82.5,74.0,77.0,75.6,70.0,96,80,65,0.00,40.00,14,8,0,1.17
2013-7-5,87.0,82.6,77.0,78.0,76.6,73.0,93,82,74,0.00,40.00,13,8,0,0.09
2013-7-6,88.0,83.8,80.0,77.0,75.4,73.0,84,76,63,0.00,40.00,12,8,0,0.00
2013-7-7,88.0,83.7,80.0,78.0,75.8,74.0,86,77,70,0.00,40.00,15,9,0,0.00
2013-7-8,89.0,82.8,80.0,75.0,71.6,-99.9,81,73,62,0.00,40.00,12,8,0,0.00
2013-7-9,86.0,80.4,76.0,76.0,74.0,72.0,92,81,66,0.00,40.00,14,5,0,0.25
2013-7-10,86.0,78.3,76.0,77.0,70.9,-99.9,92,82,70,0.00,40.00,11,4,0,0.00
2013-7-11,90.0,81.0,76.0,79.0,72.8,-99.9,94,79,59,0.00,40.00,12,4,0,0.00
2013-7-12,89.0,80.1,76.0,78.0,74.8,72.0,92,84,57,0.00,40.00,10,2,0,0.00
2013-7-13,87.0,77.1,72.0,77.0,73.9,71.0,97,90,71,0.00,40.00,14,4,0,4.49
2013-7-14,87.0,79.2,73.0,77.0,74.2,71.0,97,85,63,0.00,40.00,12,5,0,0.42
2013-7-15,88.0,81.1,74.0,77.0,74.2,72.0,95,80,63,0.00,40.00,12,6,0,0.00
2013-7-16,84.0,79.1,75.0,76.0,73.5,72.0,94,83,68,0.00,40.00,17,8,0,0.36
2013-7-17,81.0,75.5,72.0,77.0,73.6,70.0,97,93,80,0.00,40.00,11,4,0,1.62
2013-7-18,85.0,76.3,73.0,78.0,74.1,71.0,97,93,75,0.00,40.00,15,4,0,1.60
2013-7-19,88.0,81.1,74.0,80.0,76.6,73.0,97,87,69,0.00,40.00,11,5,0,0.00
2013-7-20,88.0,82.2,77.0,80.0,75.8,-99.9,91,83,64,0.00,40.00,11,5,0,0.00
2013-7-21,90.0,82.8,78.0,80.0,77.5,75.0,94,84,68,0.00,40.00,8,4,0,0.00
2013-7-22,91.0,85.8,80.0,78.0,76.1,73.0,89,73,57,0.00,40.00,8,5,0,0.00
2013-7-23,92.0,84.2,77.0,79.0,76.7,75.0,94,79,59,0.00,40.00,10,4,0,0.00
2013-7-24,93.0,86.3,80.0,78.0,75.9,72.0,92,72,50,0.00,40.00,14,6,0,0.00
2013-7-25,94.0,86.3,76.0,78.0,75.3,73.0,92,71,53,0.00,40.00,10,6,0,0.00
2013-7-26,93.0,84.7,76.0,78.0,76.9,74.0,92,78,56,0.00,40.00,12,6,0,0.03
2013-7-27,86.0,80.1,76.0,81.0,77.1,74.0,95,90,80,0.00,40.00,12,3,0,1.68
2013-7-28,90.0,81.9,77.0,79.0,76.4,72.0,95,84,61,0.00,40.00,8,3,0,0.14
2013-7-29,90.0,84.5,78.0,81.0,77.7,76.0,96,80,64,0.00,40.00,11,5,0,0.00
2013-7-30,90.0,84.2,79.0,81.0,78.3,76.0,92,83,69,0.00,40.00,14,6,0,0.30
2013-7-31,90.0,85.1,80.0,79.0,77.2,75.0,91,77,64,0.00,40.00,13,7,0,0.00
2013-8-1,89.0,84.3,80.0,77.0,75.6,74.0,83,75,63,0.00,40.00,13,8,0,0.03
2013-8-2,91.0,83.0,77.0,77.0,75.4,73.0,95,79,55,0.00,40.00,8,4,0,0.14
2013-8-3,88.0,79.4,74.0,80.0,76.5,72.0,97,91,70,0.00,40.00,11,2,0,0.17
2013-8-4,95.0,83.5,76.0,79.0,76.1,73.0,97,80,50,0.00,40.00,8,3,0,0.08
2013-8-5,92.0,83.5,78.0,81.0,77.0,73.0,93,81,61,0.00,40.00,9,4,0,0.00
2013-8-6,91.0,83.6,77.0,80.0,77.1,74.0,95,81,61,0.00,40.00,8,4,0,0.00
2013-8-7,90.0,83.4,78.0,79.0,76.7,74.0,93,80,63,0.00,40.00,10,4,0,0.03
2013-8-8,90.0,85.5,80.0,78.0,75.7,73.0,82,72,61,0.00,40.00,12,8,0,0.00
2013-8-9,88.0,83.2,76.0,79.0,75.2,72.0,93,77,67,0.00,40.00,12,7,0,0.82
2013-8-10,90.0,84.9,79.0,79.0,76.9,72.0,85,77,64,0.00,40.00,12,8,0,0.00
2013-8-11,90.0,86.1,82.0,79.0,77.5,76.0,84,76,67,0.00,40.00,13,8,0,0.00
2013-8-12,90.0,85.2,77.0,77.0,75.9,73.0,91,74,58,0.00,40.00,11,7,0,0.00
2013-8-13,91.0,83.6,78.0,79.0,72.4,-99.9,94,72,58,0.00,40.00,9,5,0,0.03
2013-8-14,91.0,81.4,77.0,77.0,68.4,-99.9,92,73,58,0.00,40.00,9,5,0,0.00
2013-8-15,86.0,71.4,77.0,79.0,52.3,-99.9,97,80,75,0.00,40.00,7,3,0,1.26
2013-8-16,91.0,81.4,78.0,80.0,70.5,-99.9,97,79,60,0.00,40.00,10,5,0,0.00
2013-8-19,90.0,76.9,77.0,79.0,55.3,-99.9,97,79,66,0.00,40.00,12,6,0,0.25
2013-8-20,90.0,83.3,80.0,79.0,73.6,-99.9,93,77,65,0.00,40.00,12,8,0,0.00
2013-8-21,89.0,84.4,77.0,81.0,78.9,76.0,97,83,74,0.00,40.00,14,8,0,0.00
2013-8-22,89.0,84.2,76.0,80.0,78.2,74.0,97,82,71,0.00,40.00,10,6,0,0.46
2013-8-23,89.0,84.4,80.0,80.0,77.5,75.0,87,80,69,0.00,40.00,11,5,0,0.00
2013-8-24,91.0,84.2,78.0,79.0,77.5,75.0,95,81,66,0.00,40.00,10,4,0,0.14
2013-8-25,88.0,79.8,79.0,78.0,71.9,-99.9,93,82,69,0.00,40.00,9,5,0,0.00
2013-8-26,88.0,82.4,78.0,78.0,75.3,72.0,88,79,68,0.00,40.00,11,4,0,0.03
2013-8-27,86.0,80.3,76.0,77.0,74.7,70.0,92,83,61,0.00,40.00,8,3,0,0.03
2013-8-28,88.0,84.4,79.0,77.0,75.9,75.0,91,76,65,0.00,40.00,10,6,0,0.00
2013-8-29,91.0,83.4,76.0,78.0,76.3,73.0,96,80,61,0.00,40.00,9,4,0,0.00
2013-8-30,92.0,84.4,76.0,78.0,75.1,71.0,97,74,52,0.00,40.00,10,4,0,0.00
2013-8-31,91.0,79.4,73.0,78.0,74.6,70.0,97,85,60,0.00,40.00,14,3,0,1.12
2013-9-1,87.0,77.8,74.0,80.0,74.3,-99.9,98,91,77,0.00,40.00,7,2,0,0.47
2013-9-2,92.0,81.1,75.0,80.0,76.2,74.0,97,86,58,0.00,40.00,14,3,0,1.02
2013-9-3,89.0,79.6,73.0,80.0,76.1,72.0,98,89,69,0.00,40.00,9,3,0,0.33
2013-9-4,89.0,83.2,78.0,81.0,78.2,76.0,97,85,66,0.00,40.00,9,4,0,0.00
2013-9-5,89.0,83.8,76.0,81.0,78.3,74.0,97,83,68,0.00,40.00,10,5,0,0.08
2013-9-6,91.0,84.6,78.0,80.0,77.6,75.0,96,80,62,0.00,40.00,11,5,0,0.00
2013-9-7,89.0,82.5,78.0,78.0,75.3,73.0,86,79,65,0.00,40.00,7,4,0,0.00
2013-9-8,90.0,79.2,76.0,78.0,73.1,-99.9,94,84,59,0.00,40.00,9,3,0,0.11
2013-9-9,89.0,82.3,77.0,78.0,76.4,75.0,97,83,66,0.00,40.00,12,5,0,0.72
2013-9-10,89.0,82.3,77.0,79.0,76.8,74.0,98,84,66,0.00,40.00,17,7,0,0.03
2013-9-11,88.0,82.3,77.0,78.0,76.6,75.0,96,83,71,0.00,40.00,13,6,0,0.06
2013-9-12,86.0,83.0,78.0,79.0,77.2,74.0,93,83,68,0.00,40.00,7,4,0,0.00
2013-9-13,92.0,84.0,76.0,79.0,75.8,73.0,98,77,55,0.00,40.00,8,3,0,0.00
2013-9-14,91.0,84.5,77.0,79.0,76.5,73.0,97,78,55,0.00,40.00,11,4,0,0.00
2013-9-15,85.0,80.5,78.0,80.0,75.5,-99.9,94,87,78,0.00,40.00,10,4,0,0.00
2013-9-16,85.0,81.8,79.0,79.0,77.1,73.0,95,86,75,0.00,40.00,11,5,0,0.03
2013-9-17,85.0,79.7,75.0,79.0,76.8,74.0,97,90,80,0.00,40.00,10,4,0,0.82
2013-9-18,80.0,78.3,77.0,77.0,76.6,74.0,97,94,86,0.00,40.00,4,2,0,0.14
2013-9-19,89.0,81.4,75.0,79.0,76.0,73.0,95,84,68,0.00,40.00,11,5,0,0.00
2013-9-20,87.0,81.4,76.0,76.0,73.1,70.0,93,77,58,0.00,40.00,11,5,0,0.00
2013-9-21,88.0,81.1,74.0,77.0,75.4,73.0,97,83,66,0.00,40.00,9,4,0,0.00
2013-9-22,92.0,82.7,76.0,79.0,74.9,-99.9,98,80,57,0.00,40.00,9,4,0,0.00
2013-9-23,89.0,81.9,78.0,81.0,78.3,76.0,96,89,72,0.00,40.00,8,3,0,0.31
2013-9-24,94.0,83.5,77.0,82.0,76.9,74.0,97,82,56,0.00,40.00,14,5,0,0.03
2013-9-25,90.0,81.0,75.0,81.0,76.8,72.0,96,87,72,0.00,40.00,14,4,0,0.11
2013-9-26,91.0,82.4,77.0,82.0,78.2,75.0,96,87,69,0.00,40.00,12,6,0,0.00
2013-9-27,90.0,82.1,77.0,78.0,75.1,71.0,97,80,54,0.00,40.00,9,4,0,0.00
2013-9-28,88.0,81.1,76.0,78.0,74.4,72.0,95,80,64,0.00,40.00,12,5,0,0.00
2013-9-29,87.0,80.0,75.0,76.0,71.3,-99.9,96,78,58,0.00,40.00,10,5,0,0.14
2013-9-30,88.0,81.6,74.0,76.0,73.3,70.0,92,76,61,0.00,40.00,12,5,0,0.00
2013-10-1,83.0,82.2,82.0,75.0,74.3,74.0,78,76,75,0.00,40.00,11,9,0,0.00
2013-10-2,84.0,80.9,76.0,78.0,76.3,74.0,97,86,76,0.00,40.00,11,6,0,1.43
2013-10-3,85.0,79.8,76.0,79.0,75.7,73.0,98,87,76,0.00,40.00,12,5,0,2.51
2013-10-4,87.0,80.4,74.0,77.0,73.6,71.0,98,80,65,0.00,40.00,9,4,0,0.00
2013-10-5,89.0,81.2,73.0,75.0,72.8,69.0,94,77,52,0.00,40.00,9,5,0,0.00
2013-10-6,90.0,82.5,75.0,76.0,73.4,70.0,95,75,55,0.00,40.00,8,3,0,0.00
2013-10-7,92.0,80.4,73.0,77.0,74.1,70.0,97,82,57,0.00,40.00,17,4,0,0.55
2013-10-8,89.0,82.4,76.0,80.0,76.2,71.0,96,82,67,0.00,40.00,9,5,0,0.00
2013-10-9,86.0,78.0,72.0,78.0,74.1,71.0,96,88,72,0.00,40.00,8,3,0,0.00
2013-10-10,88.0,80.6,73.0,76.0,73.1,69.0,95,78,60,0.00,40.00,11,5,0,0.00
2013-10-11,86.0,77.7,70.0,73.0,70.4,68.0,96,79,60,0.00,40.00,10,4,0,0.00
2013-10-12,86.0,78.1,69.0,72.0,69.5,67.0,97,76,54,0.00,40.00,9,3,0,0.00
2013-10-13,86.0,77.6,72.0,74.0,68.1,-99.9,96,75,53,0.00,40.00,9,4,0,0.00
2013-10-14,86.0,78.5,72.0,72.0,69.6,67.0,90,74,58,0.00,40.00,11,4,0,0.00
2013-10-15,87.0,79.1,73.0,74.0,71.4,70.0,94,78,60,0.00,40.00,11,4,0,0.00
2013-10-16,86.0,78.8,72.0,74.0,71.9,70.0,95,79,65,0.00,40.00,11,5,0,0.00
2013-10-17,87.0,79.4,71.0,75.0,72.8,70.0,97,81,64,0.00,40.00,9,4,0,0.00
2013-10-18,87.0,80.2,72.0,76.0,73.4,71.0,98,80,66,0.00,40.00,9,4,0,0.00
2013-10-19,89.0,83.1,76.0,76.0,74.6,73.0,90,76,63,0.00,40.00,8,5,0,0.00
2013-10-20,90.0,81.5,78.0,79.0,75.0,-99.9,94,82,60,0.00,40.00,9,4,0,0.03
2013-10-21,90.0,83.6,79.0,79.0,76.7,75.0,92,80,64,0.00,40.00,9,5,0,0.00
2013-10-22,91.0,82.8,75.0,78.0,76.3,73.0,97,81,62,0.00,40.00,11,4,0,0.00
2013-10-23,88.0,81.6,78.0,79.0,75.9,70.0,95,83,66,0.00,40.00,7,4,0,1.70